SBI764 UBBB-UTTT
Flight info
| Callsign | SBI764 |
|---|---|
| Flight time | N/A |
| Altitude | 37000 |
| Route | NAMAS N35 RODAR DCT BEDEV A480 TIMGA B476 DARVA/K0828F390 T898 OGOLI N193 DIBAD |
| Aircraft | A320/M-SDE2E3FGHIRWXY/LB1 |
Departure
| Time | 2026-04-29 13:49 |
|---|---|
| Airport | Heydar Aliyev International Airport (UBBB) |
Arrival
| Time | N/A |
|---|---|
| Airport | UTTT |
| Time | Latitude | Longitude | Altitude | Speed | Heading |
|---|---|---|---|---|---|
| 2026-04-29 13:29 | 40.46782 | 50.04973 | 15 ft | 0 kts | 108° |
| 2026-04-29 13:42 | 40.46780 | 50.04980 | 15 ft | 4 kts | 108° |
| 2026-04-29 13:42 | 40.46731 | 50.04971 | 15 ft | 12 kts | 205° |
| 2026-04-29 13:43 | 40.46646 | 50.04939 | 15 ft | 13 kts | 197° |
| 2026-04-29 13:43 | 40.46561 | 50.04898 | 15 ft | 12 kts | 239° |
| 2026-04-29 13:43 | 40.46508 | 50.04814 | 15 ft | 15 kts | 210° |
| 2026-04-29 13:43 | 40.46377 | 50.04732 | 15 ft | 23 kts | 207° |
| 2026-04-29 13:44 | 40.46238 | 50.04630 | 15 ft | 22 kts | 203° |
| 2026-04-29 13:44 | 40.46149 | 50.04666 | 15 ft | 12 kts | 169° |
| 2026-04-29 13:44 | 40.46061 | 50.04681 | 15 ft | 13 kts | 165° |
| 2026-04-29 13:44 | 40.45973 | 50.04731 | 15 ft | 14 kts | 156° |
| 2026-04-29 13:45 | 40.45874 | 50.04750 | 15 ft | 14 kts | 193° |
| 2026-04-29 13:45 | 40.45774 | 50.04715 | 15 ft | 14 kts | 198° |
| 2026-04-29 13:45 | 40.45725 | 50.04612 | 15 ft | 13 kts | 259° |
| 2026-04-29 13:45 | 40.45691 | 50.04494 | 15 ft | 13 kts | 250° |
| 2026-04-29 13:46 | 40.45685 | 50.04471 | 15 ft | 0 kts | 251° |
| 2026-04-29 13:47 | 40.45679 | 50.04456 | 15 ft | 16 kts | 246° |
| 2026-04-29 13:47 | 40.45624 | 50.04219 | 15 ft | 27 kts | 262° |
| 2026-04-29 13:47 | 40.45692 | 50.04119 | 15 ft | 6 kts | 343° |
| 2026-04-29 13:48 | 40.45697 | 50.04116 | 15 ft | 1 kts | 343° |
| 2026-04-29 13:48 | 40.45720 | 50.04107 | 15 ft | 16 kts | 342° |
| 2026-04-29 13:48 | 40.46127 | 50.03962 | 15 ft | 100 kts | 351° |
| 2026-04-29 13:48 | 40.47009 | 50.03643 | 170 ft | 152 kts | 341° |
| 2026-04-29 13:49 | 40.48047 | 50.03231 | 911 ft | 160 kts | 341° |
| 2026-04-29 13:49 | 40.49107 | 50.02807 | 1852 ft | 163 kts | 340° |
| 2026-04-29 13:49 | 40.50172 | 50.02387 | 2645 ft | 164 kts | 343° |
| 2026-04-29 13:49 | 40.51324 | 50.02064 | 3211 ft | 179 kts | 346° |
| 2026-04-29 13:50 | 40.52646 | 50.01716 | 3686 ft | 202 kts | 345° |
| 2026-04-29 13:50 | 40.54079 | 50.01306 | 4310 ft | 220 kts | 345° |
| 2026-04-29 13:50 | 40.55633 | 50.00804 | 4958 ft | 237 kts | 346° |
| 2026-04-29 13:50 | 40.57338 | 50.00363 | 5610 ft | 256 kts | 356° |
| 2026-04-29 13:51 | 40.59119 | 50.00867 | 6404 ft | 269 kts | 26° |
| 2026-04-29 13:51 | 40.60572 | 50.02504 | 7234 ft | 278 kts | 53° |
| 2026-04-29 13:51 | 40.61311 | 50.04917 | 7753 ft | 286 kts | 82° |
| 2026-04-29 13:51 | 40.61192 | 50.07574 | 7989 ft | 290 kts | 98° |
| 2026-04-29 13:52 | 40.60874 | 50.10218 | 7990 ft | 289 kts | 99° |
| 2026-04-29 13:52 | 40.60560 | 50.12890 | 8272 ft | 297 kts | 99° |
| 2026-04-29 13:52 | 40.60260 | 50.15575 | 9223 ft | 298 kts | 98° |
| 2026-04-29 13:52 | 40.59972 | 50.18247 | 10194 ft | 298 kts | 98° |
| 2026-04-29 13:53 | 40.59684 | 50.20962 | 10857 ft | 308 kts | 98° |
| 2026-04-29 13:53 | 40.59374 | 50.23918 | 11285 ft | 326 kts | 99° |
| 2026-04-29 13:53 | 40.59039 | 50.26973 | 11666 ft | 343 kts | 102° |
| 2026-04-29 13:53 | 40.58456 | 50.30109 | 12057 ft | 358 kts | 110° |
| 2026-04-29 13:54 | 40.57518 | 50.33268 | 12705 ft | 364 kts | 117° |
| 2026-04-29 13:54 | 40.56421 | 50.36301 | 13452 ft | 367 kts | 119° |
| 2026-04-29 13:54 | 40.55288 | 50.39338 | 14159 ft | 371 kts | 119° |
| 2026-04-29 13:54 | 40.54136 | 50.42437 | 14842 ft | 375 kts | 119° |
| 2026-04-29 13:55 | 40.52991 | 50.45535 | 15494 ft | 379 kts | 119° |
| 2026-04-29 13:55 | 40.51830 | 50.48690 | 16161 ft | 383 kts | 119° |
| 2026-04-29 13:55 | 40.50671 | 50.51848 | 16832 ft | 387 kts | 120° |
| 2026-04-29 13:55 | 40.49483 | 50.55083 | 17506 ft | 390 kts | 120° |
| 2026-04-29 13:56 | 40.48287 | 50.58336 | 18167 ft | 394 kts | 120° |
| 2026-04-29 13:56 | 40.47094 | 50.61577 | 18806 ft | 397 kts | 120° |
| 2026-04-29 13:56 | 40.45865 | 50.64912 | 19446 ft | 401 kts | 120° |
| 2026-04-29 13:56 | 40.44639 | 50.68235 | 20064 ft | 404 kts | 121° |
| 2026-04-29 13:57 | 40.43401 | 50.71590 | 20670 ft | 407 kts | 121° |
| 2026-04-29 13:57 | 40.42139 | 50.75003 | 21253 ft | 410 kts | 121° |
| 2026-04-29 13:57 | 40.40869 | 50.78433 | 21818 ft | 414 kts | 121° |
| 2026-04-29 13:57 | 40.40021 | 50.80720 | 22187 ft | 416 kts | 121° |
| 2026-04-29 13:58 | 40.38320 | 50.85306 | 22905 ft | 420 kts | 121° |
| 2026-04-29 13:58 | 40.37181 | 50.88874 | 23396 ft | 430 kts | 110° |
| 2026-04-29 13:58 | 40.36716 | 50.92828 | 23891 ft | 442 kts | 95° |
| 2026-04-29 13:58 | 40.37034 | 50.96872 | 24386 ft | 452 kts | 82° |
| 2026-04-29 13:59 | 40.37755 | 51.00880 | 24903 ft | 455 kts | 79° |
| 2026-04-29 13:59 | 40.38522 | 51.04877 | 25375 ft | 458 kts | 79° |
| 2026-04-29 13:59 | 40.39304 | 51.08975 | 25857 ft | 461 kts | 79° |
| 2026-04-29 13:59 | 40.40066 | 51.13045 | 26330 ft | 463 kts | 80° |
| 2026-04-29 14:00 | 40.40819 | 51.17151 | 26779 ft | 465 kts | 80° |
| 2026-04-29 14:00 | 40.41565 | 51.21259 | 27202 ft | 468 kts | 80° |
| 2026-04-29 14:00 | 40.42318 | 51.25436 | 27634 ft | 470 kts | 81° |
| 2026-04-29 14:00 | 40.43072 | 51.29646 | 28065 ft | 472 kts | 81° |
| 2026-04-29 14:01 | 40.43820 | 51.33832 | 28485 ft | 474 kts | 81° |
| 2026-04-29 14:01 | 40.44576 | 51.38077 | 28885 ft | 476 kts | 81° |
| 2026-04-29 14:01 | 40.45332 | 51.42323 | 29285 ft | 478 kts | 81° |
| 2026-04-29 14:01 | 40.46022 | 51.46580 | 29685 ft | 478 kts | 84° |
| 2026-04-29 14:02 | 40.46536 | 51.50890 | 30066 ft | 477 kts | 87° |
| 2026-04-29 14:02 | 40.46854 | 51.55191 | 30452 ft | 475 kts | 91° |
| 2026-04-29 14:02 | 40.47023 | 51.59555 | 30928 ft | 472 kts | 92° |
| 2026-04-29 14:02 | 40.47162 | 51.63891 | 31410 ft | 469 kts | 92° |
| 2026-04-29 14:03 | 40.47294 | 51.68187 | 31865 ft | 467 kts | 93° |
| 2026-04-29 14:03 | 40.47421 | 51.72416 | 32285 ft | 466 kts | 93° |
| 2026-04-29 14:03 | 40.47549 | 51.76659 | 32660 ft | 466 kts | 93° |
| 2026-04-29 14:03 | 40.47676 | 51.80904 | 33005 ft | 466 kts | 93° |
| 2026-04-29 14:04 | 40.47804 | 51.85166 | 33341 ft | 467 kts | 93° |
| 2026-04-29 14:04 | 40.47932 | 51.89427 | 33662 ft | 467 kts | 93° |
| 2026-04-29 14:04 | 40.48059 | 51.93686 | 33995 ft | 467 kts | 92° |
| 2026-04-29 14:04 | 40.48183 | 51.97880 | 34365 ft | 465 kts | 92° |
| 2026-04-29 14:05 | 40.48311 | 52.02201 | 34716 ft | 464 kts | 92° |
| 2026-04-29 14:05 | 40.48433 | 52.06427 | 34999 ft | 463 kts | 92° |
| 2026-04-29 14:05 | 40.48552 | 52.10617 | 35255 ft | 464 kts | 92° |
| 2026-04-29 14:05 | 40.48671 | 52.14863 | 35480 ft | 465 kts | 92° |
| 2026-04-29 14:06 | 40.48790 | 52.19139 | 35672 ft | 465 kts | 92° |
| 2026-04-29 14:06 | 40.48906 | 52.23410 | 35807 ft | 467 kts | 92° |
| 2026-04-29 14:06 | 40.49024 | 52.27697 | 35945 ft | 468 kts | 92° |
| 2026-04-29 14:06 | 40.49139 | 52.31961 | 36087 ft | 470 kts | 92° |
| 2026-04-29 14:07 | 40.49254 | 52.36290 | 36228 ft | 471 kts | 92° |
| 2026-04-29 14:07 | 40.49368 | 52.40620 | 36370 ft | 472 kts | 92° |
| 2026-04-29 14:07 | 40.49479 | 52.44933 | 36502 ft | 473 kts | 92° |
| 2026-04-29 14:07 | 40.49589 | 52.49274 | 36629 ft | 474 kts | 92° |
| 2026-04-29 14:08 | 40.49697 | 52.53629 | 36753 ft | 475 kts | 92° |
| 2026-04-29 14:08 | 40.49804 | 52.57993 | 36876 ft | 477 kts | 92° |
| 2026-04-29 14:08 | 40.49909 | 52.62348 | 36993 ft | 477 kts | 92° |
| 2026-04-29 14:08 | 40.50012 | 52.66701 | 37008 ft | 479 kts | 92° |
| 2026-04-29 14:09 | 40.50215 | 52.75450 | 37017 ft | 479 kts | 92° |
| 2026-04-29 14:09 | 40.50412 | 52.84230 | 37020 ft | 479 kts | 92° |
| 2026-04-29 14:10 | 40.50601 | 52.92983 | 37019 ft | 479 kts | 92° |
| 2026-04-29 14:10 | 40.50784 | 53.01726 | 37019 ft | 479 kts | 92° |
| 2026-04-29 14:11 | 40.50960 | 53.10478 | 37018 ft | 479 kts | 92° |
| 2026-04-29 14:11 | 40.51131 | 53.19247 | 37016 ft | 478 kts | 92° |
| 2026-04-29 14:12 | 40.51293 | 53.27872 | 37014 ft | 478 kts | 92° |
| 2026-04-29 14:12 | 40.51449 | 53.36608 | 37014 ft | 478 kts | 92° |
| 2026-04-29 14:13 | 40.51598 | 53.45311 | 37014 ft | 478 kts | 92° |
| 2026-04-29 14:13 | 40.51742 | 53.54100 | 37016 ft | 477 kts | 92° |
| 2026-04-29 14:14 | 40.51878 | 53.62793 | 37016 ft | 477 kts | 92° |
| 2026-04-29 14:14 | 40.52008 | 53.71545 | 37016 ft | 477 kts | 92° |
| 2026-04-29 14:15 | 40.52132 | 53.80294 | 37017 ft | 477 kts | 92° |
| 2026-04-29 14:15 | 40.52248 | 53.89019 | 37017 ft | 477 kts | 92° |
| 2026-04-29 14:16 | 40.52359 | 53.97834 | 37018 ft | 477 kts | 92° |
| 2026-04-29 14:16 | 40.52463 | 54.06598 | 37017 ft | 477 kts | 92° |
| 2026-04-29 14:17 | 40.52560 | 54.15363 | 37019 ft | 477 kts | 92° |
| 2026-04-29 14:17 | 40.52651 | 54.24111 | 37018 ft | 477 kts | 92° |
| 2026-04-29 14:18 | 40.52734 | 54.32824 | 37017 ft | 478 kts | 92° |
| 2026-04-29 14:18 | 40.52811 | 54.41565 | 37020 ft | 477 kts | 92° |
| 2026-04-29 14:19 | 40.52883 | 54.50335 | 37028 ft | 477 kts | 92° |
| 2026-04-29 14:19 | 40.52947 | 54.59080 | 37034 ft | 477 kts | 92° |
| 2026-04-29 14:20 | 40.53004 | 54.67841 | 37037 ft | 477 kts | 93° |
| 2026-04-29 14:20 | 40.53055 | 54.76597 | 37040 ft | 477 kts | 93° |
| 2026-04-29 14:21 | 40.53099 | 54.85296 | 37044 ft | 477 kts | 93° |
| 2026-04-29 14:21 | 40.53136 | 54.93981 | 37048 ft | 476 kts | 93° |
| 2026-04-29 14:22 | 40.53167 | 55.02674 | 37050 ft | 476 kts | 93° |
| 2026-04-29 14:22 | 40.53191 | 55.11372 | 37050 ft | 476 kts | 93° |
| 2026-04-29 14:23 | 40.53207 | 55.20064 | 37046 ft | 476 kts | 93° |
| 2026-04-29 14:23 | 40.53217 | 55.28730 | 37043 ft | 476 kts | 93° |
| 2026-04-29 14:24 | 40.53222 | 55.37454 | 37037 ft | 476 kts | 93° |
| 2026-04-29 14:24 | 40.53219 | 55.46147 | 37032 ft | 476 kts | 93° |
| 2026-04-29 14:25 | 40.53211 | 55.54848 | 37024 ft | 477 kts | 93° |
| 2026-04-29 14:25 | 40.53196 | 55.63569 | 37017 ft | 476 kts | 93° |
| 2026-04-29 14:26 | 40.53175 | 55.72268 | 37011 ft | 476 kts | 94° |
| 2026-04-29 14:26 | 40.53144 | 55.80981 | 37009 ft | 476 kts | 94° |
| 2026-04-29 14:27 | 40.53108 | 55.89745 | 37006 ft | 476 kts | 94° |
| 2026-04-29 14:28 | 40.53045 | 56.02462 | 37002 ft | 477 kts | 94° |
| 2026-04-29 14:28 | 40.52995 | 56.11202 | 36998 ft | 477 kts | 94° |
| 2026-04-29 14:29 | 40.52938 | 56.19951 | 36996 ft | 477 kts | 94° |
| 2026-04-29 14:29 | 40.52874 | 56.28605 | 36996 ft | 477 kts | 93° |
| 2026-04-29 14:30 | 40.52802 | 56.37378 | 36991 ft | 477 kts | 93° |
| 2026-04-29 14:30 | 40.52725 | 56.46088 | 36970 ft | 477 kts | 93° |
| 2026-04-29 14:31 | 40.52646 | 56.54805 | 36945 ft | 478 kts | 92° |
| 2026-04-29 14:31 | 40.53020 | 56.63475 | 36950 ft | 480 kts | 85° |
| 2026-04-29 14:32 | 40.54201 | 56.72143 | 36968 ft | 482 kts | 78° |
| 2026-04-29 14:32 | 40.56168 | 56.80574 | 36966 ft | 484 kts | 72° |
| 2026-04-29 14:33 | 40.58471 | 56.88903 | 36951 ft | 484 kts | 71° |
| 2026-04-29 14:33 | 40.60756 | 56.97213 | 36945 ft | 484 kts | 72° |
| 2026-04-29 14:34 | 40.63016 | 57.05553 | 36943 ft | 484 kts | 72° |
| 2026-04-29 14:34 | 40.65264 | 57.13888 | 36941 ft | 484 kts | 72° |
| 2026-04-29 14:35 | 40.67493 | 57.22203 | 36940 ft | 484 kts | 72° |
| 2026-04-29 14:35 | 40.69720 | 57.30550 | 36944 ft | 483 kts | 72° |
| 2026-04-29 14:36 | 40.71938 | 57.38908 | 36948 ft | 483 kts | 72° |
| 2026-04-29 14:36 | 40.74147 | 57.47274 | 36946 ft | 483 kts | 72° |
| 2026-04-29 14:37 | 40.76359 | 57.55661 | 36939 ft | 483 kts | 72° |
| 2026-04-29 14:37 | 40.78556 | 57.63994 | 36933 ft | 483 kts | 71° |
| 2026-04-29 14:38 | 40.80836 | 57.72007 | 36933 ft | 484 kts | 71° |
| 2026-04-29 14:38 | 40.83219 | 57.80312 | 36931 ft | 483 kts | 70° |
| 2026-04-29 14:39 | 40.85598 | 57.88631 | 36933 ft | 484 kts | 70° |
| 2026-04-29 14:39 | 40.87950 | 57.96903 | 36931 ft | 484 kts | 71° |
| 2026-04-29 14:40 | 40.90303 | 58.05235 | 36926 ft | 484 kts | 71° |
| 2026-04-29 14:40 | 40.92622 | 58.13531 | 36917 ft | 484 kts | 71° |
| 2026-04-29 14:41 | 40.94962 | 58.21883 | 36918 ft | 484 kts | 70° |
| 2026-04-29 14:41 | 40.97293 | 58.30212 | 36918 ft | 483 kts | 70° |
| 2026-04-29 14:42 | 40.99614 | 58.38543 | 36919 ft | 483 kts | 70° |
| 2026-04-29 14:42 | 41.01935 | 58.46905 | 36919 ft | 483 kts | 70° |
| 2026-04-29 14:43 | 41.04242 | 58.55248 | 36920 ft | 483 kts | 70° |
| 2026-04-29 14:43 | 41.06531 | 58.63538 | 36918 ft | 483 kts | 71° |
| 2026-04-29 14:44 | 41.08835 | 58.71924 | 36913 ft | 483 kts | 71° |
| 2026-04-29 14:44 | 41.11119 | 58.80291 | 36910 ft | 483 kts | 71° |
| 2026-04-29 14:45 | 41.13410 | 58.88644 | 36911 ft | 482 kts | 71° |
| 2026-04-29 14:45 | 41.15688 | 58.97013 | 36907 ft | 483 kts | 71° |
| 2026-04-29 14:46 | 41.17968 | 59.05438 | 36907 ft | 483 kts | 71° |
| 2026-04-29 14:46 | 41.20219 | 59.13785 | 36904 ft | 483 kts | 71° |
| 2026-04-29 14:47 | 41.22483 | 59.22200 | 36905 ft | 483 kts | 70° |
| 2026-04-29 14:47 | 41.24755 | 59.30631 | 36906 ft | 483 kts | 70° |
| 2026-04-29 14:48 | 41.27011 | 59.39050 | 36908 ft | 482 kts | 71° |
| 2026-04-29 14:48 | 41.29250 | 59.47478 | 36910 ft | 482 kts | 70° |
| 2026-04-29 14:49 | 41.31465 | 59.55907 | 36910 ft | 482 kts | 72° |
| 2026-04-29 14:49 | 41.33108 | 59.64564 | 36912 ft | 482 kts | 80° |
| 2026-04-29 14:50 | 41.33825 | 59.73410 | 36911 ft | 481 kts | 89° |
| 2026-04-29 14:50 | 41.33657 | 59.82302 | 36914 ft | 480 kts | 95° |
| 2026-04-29 14:51 | 41.33210 | 59.91176 | 36911 ft | 479 kts | 96° |
| 2026-04-29 14:51 | 41.32761 | 60.00066 | 36909 ft | 479 kts | 95° |
| 2026-04-29 14:52 | 41.32342 | 60.08923 | 36898 ft | 480 kts | 95° |
| 2026-04-29 14:52 | 41.31921 | 60.17813 | 36885 ft | 480 kts | 95° |
| 2026-04-29 14:53 | 41.31483 | 60.26680 | 36894 ft | 480 kts | 95° |
| 2026-04-29 14:53 | 41.31038 | 60.35561 | 36901 ft | 480 kts | 95° |
| 2026-04-29 14:54 | 41.30827 | 60.44478 | 36897 ft | 480 kts | 89° |
| 2026-04-29 14:54 | 41.31230 | 60.53421 | 36899 ft | 481 kts | 86° |
| 2026-04-29 14:55 | 41.31710 | 60.62304 | 36898 ft | 481 kts | 86° |
| 2026-04-29 14:55 | 41.32196 | 60.71222 | 36900 ft | 482 kts | 86° |
| 2026-04-29 14:56 | 41.32659 | 60.80128 | 36895 ft | 482 kts | 86° |
| 2026-04-29 14:56 | 41.33113 | 60.89023 | 36899 ft | 482 kts | 86° |
| 2026-04-29 14:57 | 41.33555 | 60.97952 | 36901 ft | 482 kts | 86° |
| 2026-04-29 14:57 | 41.33993 | 61.06851 | 36900 ft | 482 kts | 86° |
| 2026-04-29 14:58 | 41.34425 | 61.15768 | 36902 ft | 481 kts | 86° |
| 2026-04-29 14:58 | 41.34846 | 61.24683 | 36900 ft | 481 kts | 86° |
| 2026-04-29 14:59 | 41.35264 | 61.33569 | 36904 ft | 481 kts | 86° |
| 2026-04-29 14:59 | 41.35635 | 61.41591 | 36906 ft | 481 kts | 86° |
| 2026-04-29 15:00 | 41.36042 | 61.50543 | 36906 ft | 481 kts | 86° |
| 2026-04-29 15:00 | 41.36440 | 61.59435 | 36908 ft | 481 kts | 86° |
| 2026-04-29 15:01 | 41.36836 | 61.68389 | 36911 ft | 481 kts | 87° |
| 2026-04-29 15:01 | 41.37221 | 61.77266 | 36915 ft | 481 kts | 87° |
| 2026-04-29 15:02 | 41.37602 | 61.86187 | 36915 ft | 481 kts | 87° |
| 2026-04-29 15:02 | 41.37975 | 61.95119 | 36913 ft | 480 kts | 87° |
| 2026-04-29 15:03 | 41.38341 | 62.04037 | 36910 ft | 480 kts | 87° |
| 2026-04-29 15:03 | 41.38703 | 62.12974 | 36909 ft | 480 kts | 87° |
| 2026-04-29 15:04 | 41.39055 | 62.21823 | 36905 ft | 480 kts | 87° |
| 2026-04-29 15:04 | 41.39401 | 62.30739 | 36904 ft | 480 kts | 87° |
| 2026-04-29 15:05 | 41.39739 | 62.39662 | 36905 ft | 479 kts | 87° |
| 2026-04-29 15:05 | 41.40070 | 62.48604 | 36906 ft | 479 kts | 87° |
| 2026-04-29 15:06 | 41.40413 | 62.57545 | 36906 ft | 479 kts | 86° |
| 2026-04-29 15:06 | 41.40765 | 62.66412 | 36907 ft | 479 kts | 87° |
| 2026-04-29 15:07 | 41.41109 | 62.75332 | 36906 ft | 479 kts | 88° |
| 2026-04-29 15:07 | 41.41444 | 62.84245 | 36897 ft | 479 kts | 88° |
| 2026-04-29 15:08 | 41.41723 | 62.91837 | 36889 ft | 480 kts | 88° |
| 2026-04-29 15:08 | 41.42044 | 63.00767 | 36886 ft | 479 kts | 88° |
| 2026-04-29 15:09 | 41.42357 | 63.09665 | 36887 ft | 479 kts | 88° |
| 2026-04-29 15:09 | 41.42663 | 63.18549 | 36888 ft | 479 kts | 88° |
| 2026-04-29 15:10 | 41.42964 | 63.27489 | 36890 ft | 479 kts | 88° |
| 2026-04-29 15:10 | 41.43257 | 63.36381 | 36894 ft | 478 kts | 88° |
| 2026-04-29 15:11 | 41.43541 | 63.45237 | 36900 ft | 478 kts | 88° |
| 2026-04-29 15:11 | 41.43816 | 63.54077 | 36904 ft | 477 kts | 88° |
| 2026-04-29 15:12 | 41.44085 | 63.62943 | 36908 ft | 477 kts | 88° |
| 2026-04-29 15:12 | 41.44331 | 63.71344 | 36911 ft | 477 kts | 89° |
| 2026-04-29 15:13 | 41.44575 | 63.80167 | 36914 ft | 477 kts | 89° |
| 2026-04-29 15:13 | 41.44811 | 63.89006 | 36919 ft | 476 kts | 89° |
| 2026-04-29 15:14 | 41.45042 | 63.97864 | 36923 ft | 476 kts | 89° |
| 2026-04-29 15:14 | 41.45265 | 64.06699 | 36928 ft | 476 kts | 89° |
| 2026-04-29 15:15 | 41.45482 | 64.15525 | 36943 ft | 476 kts | 89° |
| 2026-04-29 15:15 | 41.45692 | 64.24372 | 36958 ft | 476 kts | 90° |
| 2026-04-29 15:16 | 41.45895 | 64.33205 | 36952 ft | 475 kts | 89° |
| 2026-04-29 15:16 | 41.46092 | 64.42033 | 36948 ft | 476 kts | 89° |
| 2026-04-29 15:17 | 41.46284 | 64.50873 | 36946 ft | 476 kts | 89° |
| 2026-04-29 15:17 | 41.46468 | 64.59744 | 36953 ft | 476 kts | 89° |
| 2026-04-29 15:18 | 41.46645 | 64.68619 | 36949 ft | 475 kts | 90° |
| 2026-04-29 15:18 | 41.46815 | 64.77433 | 36940 ft | 475 kts | 90° |
| 2026-04-29 15:19 | 41.46978 | 64.86291 | 36930 ft | 476 kts | 90° |
| 2026-04-29 15:19 | 41.47134 | 64.95154 | 36921 ft | 475 kts | 90° |
| 2026-04-29 15:20 | 41.47284 | 65.04040 | 36913 ft | 475 kts | 90° |
| 2026-04-29 15:20 | 41.47425 | 65.12848 | 36913 ft | 476 kts | 90° |
| 2026-04-29 15:21 | 41.47561 | 65.21684 | 36918 ft | 476 kts | 90° |
| 2026-04-29 15:21 | 41.47689 | 65.30522 | 36922 ft | 476 kts | 90° |
| 2026-04-29 15:22 | 41.47812 | 65.39436 | 36923 ft | 476 kts | 90° |
| 2026-04-29 15:22 | 41.47927 | 65.48286 | 36922 ft | 475 kts | 90° |
| 2026-04-29 15:23 | 41.48035 | 65.57106 | 36920 ft | 474 kts | 90° |
| 2026-04-29 15:23 | 41.48136 | 65.65934 | 36918 ft | 474 kts | 91° |
| 2026-04-29 15:24 | 41.48229 | 65.74773 | 36916 ft | 474 kts | 91° |
| 2026-04-29 15:24 | 41.48300 | 65.83570 | 36918 ft | 473 kts | 92° |
| 2026-04-29 15:25 | 41.48322 | 65.92401 | 36919 ft | 475 kts | 92° |
| 2026-04-29 15:25 | 41.48335 | 66.01274 | 36919 ft | 477 kts | 92° |
| 2026-04-29 15:26 | 41.48346 | 66.10170 | 36923 ft | 477 kts | 92° |
| 2026-04-29 15:26 | 41.48351 | 66.19066 | 36926 ft | 477 kts | 92° |
| 2026-04-29 15:27 | 41.48349 | 66.27908 | 36920 ft | 477 kts | 92° |
| 2026-04-29 15:27 | 41.48340 | 66.36848 | 36917 ft | 477 kts | 92° |
| 2026-04-29 15:28 | 41.48323 | 66.45686 | 36916 ft | 477 kts | 92° |
| 2026-04-29 15:28 | 41.48297 | 66.54604 | 36917 ft | 477 kts | 92° |
| 2026-04-29 15:29 | 41.47831 | 66.63394 | 36912 ft | 475 kts | 99° |
| 2026-04-29 15:29 | 41.46679 | 66.72066 | 36546 ft | 473 kts | 103° |
| 2026-04-29 15:30 | 41.45410 | 66.80652 | 35333 ft | 474 kts | 103° |
| 2026-04-29 15:30 | 41.44776 | 66.84947 | 34582 ft | 470 kts | 103° |
| 2026-04-29 15:30 | 41.44152 | 66.89179 | 33804 ft | 461 kts | 103° |
| 2026-04-29 15:30 | 41.43536 | 66.93360 | 32942 ft | 458 kts | 103° |
| 2026-04-29 15:31 | 41.42932 | 66.97453 | 32091 ft | 461 kts | 103° |
| 2026-04-29 15:31 | 41.42313 | 67.01633 | 31264 ft | 462 kts | 103° |
| 2026-04-29 15:31 | 41.41685 | 67.05865 | 30442 ft | 464 kts | 103° |
| 2026-04-29 15:31 | 41.41061 | 67.10057 | 29581 ft | 464 kts | 103° |
| 2026-04-29 15:32 | 41.40442 | 67.14205 | 28918 ft | 457 kts | 103° |
| 2026-04-29 15:32 | 41.39819 | 67.18368 | 28319 ft | 456 kts | 103° |
| 2026-04-29 15:32 | 41.39193 | 67.22533 | 27721 ft | 454 kts | 103° |
| 2026-04-29 15:32 | 41.38575 | 67.26646 | 27194 ft | 451 kts | 103° |
| 2026-04-29 15:33 | 41.37958 | 67.30730 | 26677 ft | 447 kts | 103° |
| 2026-04-29 15:33 | 41.37350 | 67.34757 | 26153 ft | 443 kts | 103° |
| 2026-04-29 15:33 | 41.36750 | 67.38717 | 25634 ft | 439 kts | 102° |
| 2026-04-29 15:33 | 41.36148 | 67.42685 | 25111 ft | 435 kts | 102° |
| 2026-04-29 15:34 | 41.35545 | 67.46648 | 24563 ft | 431 kts | 102° |
| 2026-04-29 15:34 | 41.34959 | 67.50496 | 24024 ft | 428 kts | 102° |
| 2026-04-29 15:34 | 41.34367 | 67.54367 | 23482 ft | 424 kts | 102° |
| 2026-04-29 15:34 | 41.33781 | 67.58193 | 22942 ft | 420 kts | 102° |
| 2026-04-29 15:35 | 41.33202 | 67.61964 | 22405 ft | 415 kts | 102° |
| 2026-04-29 15:35 | 41.32628 | 67.65697 | 21872 ft | 412 kts | 102° |
| 2026-04-29 15:35 | 41.32050 | 67.69441 | 21333 ft | 408 kts | 102° |
| 2026-04-29 15:35 | 41.31484 | 67.73099 | 20808 ft | 405 kts | 102° |
| 2026-04-29 15:36 | 41.30913 | 67.76791 | 20269 ft | 402 kts | 102° |
| 2026-04-29 15:36 | 41.30351 | 67.80411 | 19876 ft | 398 kts | 102° |
| 2026-04-29 15:36 | 41.29789 | 67.84016 | 19598 ft | 398 kts | 102° |
| 2026-04-29 15:36 | 41.29221 | 67.87645 | 19293 ft | 396 kts | 102° |
| 2026-04-29 15:37 | 41.28667 | 67.91225 | 18583 ft | 399 kts | 101° |
| 2026-04-29 15:37 | 41.28234 | 67.94876 | 17710 ft | 404 kts | 97° |
| 2026-04-29 15:37 | 41.27944 | 67.98583 | 17060 ft | 396 kts | 96° |
| 2026-04-29 15:37 | 41.27692 | 68.02125 | 16486 ft | 380 kts | 95° |
| 2026-04-29 15:38 | 41.27445 | 68.05606 | 15932 ft | 369 kts | 95° |
| 2026-04-29 15:38 | 41.27209 | 68.08958 | 15411 ft | 361 kts | 95° |
| 2026-04-29 15:38 | 41.26977 | 68.12243 | 14901 ft | 355 kts | 95° |
| 2026-04-29 15:38 | 41.26741 | 68.15506 | 14415 ft | 361 kts | 95° |
| 2026-04-29 15:39 | 41.26493 | 68.18832 | 13924 ft | 365 kts | 95° |
| 2026-04-29 15:39 | 41.26242 | 68.22164 | 13443 ft | 362 kts | 95° |
| 2026-04-29 15:39 | 41.25992 | 68.25497 | 12959 ft | 359 kts | 95° |
| 2026-04-29 15:39 | 41.25748 | 68.28752 | 12473 ft | 356 kts | 95° |
| 2026-04-29 15:40 | 41.25502 | 68.32040 | 11975 ft | 354 kts | 95° |
| 2026-04-29 15:40 | 41.25263 | 68.35230 | 11489 ft | 351 kts | 95° |
| 2026-04-29 15:40 | 41.25019 | 68.38488 | 11040 ft | 348 kts | 95° |
| 2026-04-29 15:40 | 41.24783 | 68.41656 | 10718 ft | 347 kts | 95° |
| 2026-04-29 15:41 | 41.24543 | 68.44844 | 10390 ft | 341 kts | 95° |
| 2026-04-29 15:41 | 41.24312 | 68.47914 | 10069 ft | 332 kts | 95° |
| 2026-04-29 15:41 | 41.24083 | 68.50932 | 9747 ft | 324 kts | 95° |
| 2026-04-29 15:41 | 41.23859 | 68.53861 | 9479 ft | 315 kts | 95° |
| 2026-04-29 15:42 | 41.23637 | 68.56698 | 9284 ft | 304 kts | 95° |
| 2026-04-29 15:42 | 41.23420 | 68.59448 | 9087 ft | 293 kts | 95° |
| 2026-04-29 15:42 | 41.23202 | 68.62141 | 8771 ft | 289 kts | 95° |
| 2026-04-29 15:42 | 41.22984 | 68.64784 | 8373 ft | 288 kts | 95° |
| 2026-04-29 15:43 | 41.22763 | 68.67436 | 7974 ft | 286 kts | 96° |
| 2026-04-29 15:43 | 41.22545 | 68.70042 | 7590 ft | 285 kts | 96° |
| 2026-04-29 15:43 | 41.22321 | 68.72684 | 7195 ft | 283 kts | 96° |
| 2026-04-29 15:43 | 41.22098 | 68.75277 | 6791 ft | 282 kts | 96° |
| 2026-04-29 15:44 | 41.21876 | 68.77863 | 6394 ft | 280 kts | 96° |
| 2026-04-29 15:44 | 41.21655 | 68.80429 | 6007 ft | 278 kts | 96° |
| 2026-04-29 15:44 | 41.21434 | 68.82977 | 5607 ft | 276 kts | 96° |
| 2026-04-29 15:44 | 41.21217 | 68.85506 | 5203 ft | 274 kts | 96° |
| 2026-04-29 15:45 | 41.21004 | 68.88010 | 4798 ft | 272 kts | 96° |
| 2026-04-29 15:45 | 41.20793 | 68.90512 | 4411 ft | 270 kts | 96° |
| 2026-04-29 15:45 | 41.20587 | 68.92990 | 4090 ft | 265 kts | 96° |
| 2026-04-29 15:45 | 41.20389 | 68.95382 | 3901 ft | 256 kts | 95° |
| 2026-04-29 15:46 | 41.20194 | 68.97714 | 3715 ft | 247 kts | 95° |
| 2026-04-29 15:46 | 41.20007 | 68.99954 | 3528 ft | 237 kts | 95° |
| 2026-04-29 15:46 | 41.19824 | 69.02087 | 3372 ft | 227 kts | 95° |
| 2026-04-29 15:46 | 41.19644 | 69.04142 | 3406 ft | 219 kts | 95° |
| 2026-04-29 15:47 | 41.19466 | 69.06174 | 3458 ft | 219 kts | 95° |
| 2026-04-29 15:47 | 41.19291 | 69.08195 | 3685 ft | 220 kts | 95° |
| 2026-04-29 15:47 | 41.19116 | 69.10251 | 3907 ft | 222 kts | 95° |
| 2026-04-29 15:47 | 41.18943 | 69.12296 | 3958 ft | 222 kts | 95° |
| 2026-04-29 15:48 | 41.18769 | 69.14336 | 3964 ft | 222 kts | 95° |
| 2026-04-29 15:48 | 41.18594 | 69.16380 | 3966 ft | 221 kts | 95° |
| 2026-04-29 15:48 | 41.18414 | 69.18449 | 3968 ft | 221 kts | 95° |
| 2026-04-29 15:48 | 41.18238 | 69.20473 | 3967 ft | 221 kts | 95° |
| 2026-04-29 15:49 | 41.18059 | 69.22542 | 3967 ft | 221 kts | 94° |
| 2026-04-29 15:49 | 41.18073 | 69.24603 | 3967 ft | 221 kts | 84° |
| 2026-04-29 15:49 | 41.18240 | 69.26655 | 3968 ft | 220 kts | 82° |
| 2026-04-29 15:49 | 41.18426 | 69.28617 | 3953 ft | 206 kts | 81° |
| 2026-04-29 15:50 | 41.18608 | 69.30496 | 3957 ft | 201 kts | 81° |
| 2026-04-29 15:50 | 41.18787 | 69.32342 | 3965 ft | 201 kts | 81° |
| 2026-04-29 15:50 | 41.18970 | 69.34216 | 3968 ft | 201 kts | 81° |
| 2026-04-29 15:50 | 41.19147 | 69.36045 | 3970 ft | 201 kts | 81° |
| 2026-04-29 15:51 | 41.19327 | 69.37901 | 3971 ft | 201 kts | 81° |
| 2026-04-29 15:51 | 41.19511 | 69.39756 | 3972 ft | 201 kts | 81° |
| 2026-04-29 15:51 | 41.19694 | 69.41615 | 3972 ft | 201 kts | 81° |
| 2026-04-29 15:51 | 41.19866 | 69.43469 | 3974 ft | 201 kts | 86° |
| 2026-04-29 15:52 | 41.19808 | 69.45319 | 3976 ft | 202 kts | 95° |
| 2026-04-29 15:52 | 41.19624 | 69.47175 | 3977 ft | 202 kts | 97° |
| 2026-04-29 15:52 | 41.19414 | 69.49030 | 3978 ft | 202 kts | 97° |
| 2026-04-29 15:52 | 41.19406 | 69.50883 | 3963 ft | 200 kts | 70° |
| 2026-04-29 15:53 | 41.20187 | 69.52395 | 3977 ft | 198 kts | 32° |
| 2026-04-29 15:53 | 41.21464 | 69.53040 | 4002 ft | 198 kts | 10° |
| 2026-04-29 15:53 | 41.22848 | 69.53298 | 3996 ft | 198 kts | 1° |
| 2026-04-29 15:53 | 41.24227 | 69.53255 | 3996 ft | 198 kts | 355° |
| 2026-04-29 15:54 | 41.25612 | 69.53103 | 3994 ft | 198 kts | 354° |
| 2026-04-29 15:54 | 41.26965 | 69.52782 | 3980 ft | 198 kts | 333° |
| 2026-04-29 15:54 | 41.27950 | 69.51535 | 4044 ft | 192 kts | 297° |
| 2026-04-29 15:54 | 41.28189 | 69.49886 | 4018 ft | 174 kts | 270° |
| 2026-04-29 15:55 | 41.28095 | 69.48390 | 3980 ft | 153 kts | 264° |
| 2026-04-29 15:55 | 41.27946 | 69.46982 | 3877 ft | 151 kts | 262° |
| 2026-04-29 15:55 | 41.27788 | 69.45610 | 3677 ft | 149 kts | 262° |
| 2026-04-29 15:55 | 41.27630 | 69.44231 | 3477 ft | 148 kts | 262° |
| 2026-04-29 15:56 | 41.27477 | 69.42869 | 3283 ft | 148 kts | 262° |
| 2026-04-29 15:56 | 41.27325 | 69.41509 | 3090 ft | 148 kts | 262° |
| 2026-04-29 15:56 | 41.27174 | 69.40156 | 2898 ft | 147 kts | 262° |
| 2026-04-29 15:56 | 41.27022 | 69.38788 | 2702 ft | 147 kts | 262° |
| 2026-04-29 15:57 | 41.26873 | 69.37445 | 2513 ft | 146 kts | 263° |
| 2026-04-29 15:57 | 41.26723 | 69.36089 | 2319 ft | 146 kts | 262° |
| 2026-04-29 15:57 | 41.26558 | 69.34747 | 2099 ft | 146 kts | 262° |
| 2026-04-29 15:57 | 41.26431 | 69.33405 | 1904 ft | 144 kts | 263° |
| 2026-04-29 15:58 | 41.26262 | 69.32085 | 1738 ft | 144 kts | 260° |
| 2026-04-29 15:58 | 41.26120 | 69.30753 | 1573 ft | 143 kts | 264° |
| 2026-04-29 15:58 | 41.25974 | 69.29427 | 1473 ft | 141 kts | 261° |
| 2026-04-29 15:58 | 41.25842 | 69.28245 | 1425 ft | 119 kts | 262° |
| 2026-04-29 15:59 | 41.25753 | 69.27319 | 1425 ft | 76 kts | 263° |
| 2026-04-29 15:59 | 41.25688 | 69.26714 | 1425 ft | 52 kts | 268° |
| 2026-04-29 15:59 | 41.25739 | 69.26365 | 1425 ft | 23 kts | 324° |
| 2026-04-29 15:59 | 41.25734 | 69.26221 | 1425 ft | 18 kts | 249° |
| 2026-04-29 16:00 | 41.25683 | 69.26056 | 1425 ft | 19 kts | 238° |
| 2026-04-29 16:00 | 41.25618 | 69.25894 | 1425 ft | 14 kts | 261° |
| 2026-04-29 16:00 | 41.25619 | 69.25906 | 1425 ft | 6 kts | 50° |
| 2026-04-29 16:00 | 41.25664 | 69.25996 | 1425 ft | 17 kts | 56° |
| 2026-04-29 16:01 | 41.25743 | 69.26136 | 1425 ft | 15 kts | 79° |
| 2026-04-29 16:01 | 41.25755 | 69.26297 | 1425 ft | 21 kts | 53° |
| 2026-04-29 16:01 | 41.25872 | 69.26432 | 1425 ft | 24 kts | 38° |
| 2026-04-29 16:01 | 41.25955 | 69.26550 | 1425 ft | 17 kts | 109° |
| 2026-04-29 16:02 | 41.25988 | 69.26659 | 1425 ft | 10 kts | 51° |
| 2026-04-29 16:02 | 41.26025 | 69.26798 | 1425 ft | 20 kts | 73° |
| 2026-04-29 16:02 | 41.26049 | 69.26900 | 1425 ft | 4 kts | 71° |
| 2026-04-29 16:02 | 41.26084 | 69.26959 | 1425 ft | 12 kts | 359° |
| 2026-04-29 16:03 | 41.26135 | 69.26898 | 1425 ft | 7 kts | 330° |
| 2026-04-29 16:03 | 41.26180 | 69.26883 | 1425 ft | 0 kts | 360° |
| 2026-04-29 16:03 | 41.26181 | 69.26883 | 1425 ft | 1 kts | 360° |
| 2026-04-29 16:03 | 41.26185 | 69.26883 | 1425 ft | 0 kts | 360° |